MDT,Max TemperatureF,Mean TemperatureF,Min TemperatureF,Max Dew PointF,MeanDew PointF,Min DewpointF,Max Humidity, Mean Humidity, Min Humidity, Max Sea Level PressureIn, Mean Sea Level PressureIn, Min Sea Level PressureIn, Max VisibilityMiles, Mean VisibilityMiles, Min VisibilityMiles, Max Wind SpeedMPH, Mean Wind SpeedMPH, Max Gust SpeedMPH,PrecipitationIn, CloudCover, Events, WindDirDegrees
2011-10-1,79,63,47,37,34,27,66,39,15,30.33,30.30,30.27,10,10,10,15,7,22,0.00,0,,191
2011-10-2,81,64,47,35,33,27,61,36,16,30.31,30.27,30.23,10,10,10,14,6,21,0.00,2,,318
2011-10-3,79,64,50,36,32,27,49,32,16,30.33,30.26,30.20,10,10,10,16,10,22,0.00,1,,353
2011-10-4,74,61,48,39,36,32,63,41,26,30.20,30.14,30.04,10,10,10,23,9,36,0.00,1,,221
2011-10-5,70,56,41,44,37,30,91,57,23,30.02,29.90,29.80,10,10,10,21,10,33,0.00,0,,167
2011-10-6,67,54,42,36,32,27,72,47,24,29.80,29.70,29.60,10,10,7,36,15,55,0.00,3,,201
2011-10-7,57,44,31,36,21,12,72,41,17,30.00,29.93,29.85,10,10,10,25,10,38,0.00,4,Rain,219
2011-10-8,43,38,32,37,34,31,96,86,68,30.19,29.98,29.87,10,8,0,30,15,41,0.00,7,Rain-Snow,340
2011-10-9,51,42,32,37,31,28,90,73,47,30.23,30.15,30.08,10,10,10,20,10,29,0.00,3,Rain,300
2011-10-10,60,46,31,34,28,22,96,57,25,30.12,30.05,30.00,10,10,10,14,6,18,0.00,0,,224
2011-10-11,64,52,39,34,29,25,71,43,23,30.04,29.95,29.90,10,10,10,24,8,31,0.00,4,,304
2011-10-12,64,51,38,32,26,18,74,41,17,30.17,30.11,30.03,10,10,10,14,8,21,0.00,0,,325
2011-10-13,72,52,33,30,25,17,75,40,13,30.20,30.13,30.05,10,10,10,13,6,21,0.00,0,,246
2011-10-14,64,52,41,32,28,22,59,41,28,30.20,30.15,30.10,10,10,10,14,8,22,0.00,0,,219
2011-10-15,75,56,37,31,25,20,74,34,13,30.23,30.18,30.12,10,10,7,17,8,28,0.00,0,,258
2011-10-16,61,52,43,34,29,17,66,41,18,30.26,30.17,30.11,10,10,7,22,9,30,0.00,0,,210
2011-10-17,54,44,34,39,34,31,89,70,42,30.29,30.10,29.94,10,10,7,29,11,39,0.00,3,Rain,342
2011-10-18,50,40,29,30,25,19,97,62,31,30.40,30.33,30.27,10,10,10,21,10,29,0.00,1,,346
2011-10-19,55,40,24,25,22,20,84,53,27,30.33,30.21,30.10,10,10,10,12,5,20,0.00,0,,231
2011-10-20,66,48,30,22,18,13,67,32,13,30.20,30.09,30.02,10,10,10,21,8,31,0.00,0,,343
2011-10-21,68,51,34,25,20,16,63,34,14,30.28,30.23,30.19,10,10,10,12,5,17,0.00,0,,252
2011-10-22,66,44,37,28,27,27,68,55,40,30.27,30.26,30.23,10,10,10,10,8,,0.00,0,,330
2011-10-23,67,51,35,28,21,17,72,34,16,30.30,30.25,30.19,10,10,10,17,9,24,0.00,0,,231
2011-10-24,75,56,36,24,14,2,60,25,7,30.26,30.11,30.02,10,10,10,22,8,29,0.00,0,,280
2011-10-25,65,52,38,33,23,13,80,35,16,30.13,30.06,30.01,10,10,10,24,12,32,0.00,2,,345
2011-10-26,32,28,23,30,25,20,94,89,82,30.19,30.15,30.13,10,4,0,18,12,23,0.00,8,Snow,12
2011-10-27,38,26,13,22,15,8,97,63,30,30.17,30.13,30.09,10,9,0,10,5,,0.00,2,Fog-Snow,345
2011-10-28,47,34,21,24,17,12,79,57,28,30.30,30.25,30.19,10,10,10,10,6,20,0.00,0,,258
2011-10-29,64,47,30,23,14,2,72,32,10,30.18,30.07,29.99,10,10,10,16,7,23,0.00,0,,291
2011-10-30,52,40,27,31,27,19,90,62,38,30.27,30.23,30.14,10,10,10,24,10,32,0.00,0,,250
2011-10-31,68,50,32,28,20,12,80,36,13,30.23,30.11,30.02,10,10,10,16,8,22,0.00,0,,290